Time;durP1;ratioP1;P1;durP2;ratioP2;P2;SDS_P1;SDS_P2;PMS_P1;PMS_P2;Temp;Humidity;BMP_temperature;BMP_pressure;BME280_temperature;BME280_humidity;BME280_pressure;Samples;Min_cycle;Max_cycle;Signal;HPM_P1;HPM_P2
2023/06/05 00:01:50;;;;;;;0.90;0.90;;;17.60;99.90;;;;;;5060445;28;20219;-62
2023/06/05 00:04:17;;;;;;;0.77;0.77;;;17.50;99.90;;;;;;5062465;28;20217;-63
2023/06/05 00:06:45;;;;;;;0.90;0.90;;;17.50;99.90;;;;;;5061520;28;20822;-61
2023/06/05 00:09:13;;;;;;;0.85;0.85;;;17.50;99.90;;;;;;5060662;28;20201;-63
2023/06/05 00:11:40;;;;;;;0.90;0.90;;;17.50;99.90;;;;;;5069064;28;20306;-62
2023/06/05 00:14:08;;;;;;;1.08;0.95;;;17.50;99.90;;;;;;5072151;28;20195;-63
2023/06/05 00:16:36;;;;;;;0.90;0.90;;;17.50;99.90;;;;;;5072220;28;20240;-63
2023/06/05 00:19:03;;;;;;;0.80;0.80;;;17.40;99.90;;;;;;5071786;28;20207;-63
2023/06/05 00:21:31;;;;;;;1.00;1.00;;;17.30;99.90;;;;;;5072121;28;20230;-61
2023/06/05 00:23:58;;;;;;;0.80;0.80;;;17.40;99.90;;;;;;5071881;28;20231;-62
2023/06/05 00:26:26;;;;;;;0.80;0.80;;;17.50;99.90;;;;;;5074366;28;20199;-63
2023/06/05 00:28:52;;;;;;;0.82;0.82;;;17.50;99.90;;;;;;5072759;28;20261;-62
2023/06/05 00:31:21;;;;;;;1.02;1.00;;;17.50;99.90;;;;;;5070376;28;20233;-61
2023/06/05 00:33:50;;;;;;;0.95;0.95;;;17.40;99.90;;;;;;5070880;28;20253;-62
2023/06/05 00:36:18;;;;;;;0.95;0.95;;;17.30;99.90;;;;;;5071360;28;20217;-62
2023/06/05 00:38:45;;;;;;;0.90;0.90;;;17.20;99.90;;;;;;5070692;28;20209;-61
2023/06/05 00:41:12;;;;;;;0.85;0.85;;;17.20;99.90;;;;;;5070458;28;20223;-63
2023/06/05 00:43:39;;;;;;;0.90;0.90;;;17.20;99.90;;;;;;5075301;28;20230;-62
2023/06/05 00:46:06;;;;;;;1.00;1.00;;;17.10;99.90;;;;;;5073726;28;20315;-61
2023/06/05 00:48:34;;;;;;;1.13;1.02;;;17.00;99.90;;;;;;5071024;28;20297;-61
2023/06/05 00:51:02;;;;;;;1.08;1.08;;;16.90;99.90;;;;;;5070008;28;20254;-62
2023/06/05 00:53:33;;;;;;;1.00;1.00;;;16.80;99.90;;;;;;5071239;28;20744;-61
2023/06/05 00:56:01;;;;;;;1.00;1.00;;;16.80;99.90;;;;;;5072189;28;20188;-61
2023/06/05 00:58:31;;;;;;;1.00;1.00;;;16.70;99.90;;;;;;5071498;28;20261;-62
2023/06/05 01:00:59;;;;;;;1.10;1.10;;;16.70;99.90;;;;;;5071131;28;20231;-62
2023/06/05 01:03:29;;;;;;;0.82;0.82;;;16.70;99.90;;;;;;5070915;28;20227;-62
2023/06/05 01:06:02;;;;;;;1.00;1.00;;;16.60;99.90;;;;;;5071046;28;20668;-61
2023/06/05 01:08:38;;;;;;;1.00;1.00;;;16.60;99.90;;;;;;5070895;28;20227;-63
2023/06/05 01:11:08;;;;;;;1.00;1.00;;;16.50;99.90;;;;;;5069667;28;20222;-61
2023/06/05 01:13:41;;;;;;;0.90;0.90;;;16.50;99.90;;;;;;5070547;28;20184;-61
2023/06/05 01:16:09;;;;;;;0.90;0.90;;;16.50;99.90;;;;;;5072970;28;20562;-61
2023/06/05 01:18:40;;;;;;;0.90;0.90;;;16.50;99.90;;;;;;5074776;28;20210;-61
2023/06/05 01:21:27;;;;;;;0.80;0.80;;;16.30;99.90;;;;;;5076991;28;20250;-61
2023/06/05 01:23:55;;;;;;;1.02;1.02;;;16.40;99.90;;;;;;5029196;28;20229;-62
2023/06/05 01:26:34;;;;;;;0.88;0.88;;;16.50;99.90;;;;;;5033436;28;20247;-62
2023/06/05 01:29:02;;;;;;;0.90;0.90;;;16.40;99.90;;;;;;5033001;28;20730;-62
2023/06/05 01:31:36;;;;;;;1.08;1.08;;;16.30;99.90;;;;;;5033609;28;20315;-62
2023/06/05 01:34:07;;;;;;;1.00;1.00;;;16.20;99.90;;;;;;5032725;28;20600;-62
2023/06/05 01:36:36;;;;;;;0.88;0.88;;;16.10;99.90;;;;;;5031743;28;20668;-61
2023/06/05 01:39:06;;;;;;;0.80;0.80;;;16.00;99.90;;;;;;5031260;28;20641;-62
2023/06/05 01:41:34;;;;;;;0.80;0.80;;;16.00;99.90;;;;;;5043596;28;20237;-62
2023/06/05 01:44:02;;;;;;;0.80;0.80;;;16.00;99.90;;;;;;5073394;28;20219;-61
2023/06/05 01:46:29;;;;;;;1.10;1.10;;;16.00;99.90;;;;;;5074142;28;20215;-62
2023/06/05 01:48:56;;;;;;;0.85;0.85;;;15.90;99.90;;;;;;5074720;28;20690;-62
2023/06/05 01:51:23;;;;;;;1.00;1.00;;;15.90;99.90;;;;;;5074074;28;20227;-60
2023/06/05 01:53:52;;;;;;;1.02;1.02;;;15.90;99.90;;;;;;5074874;28;20994;-62
2023/06/05 01:56:23;;;;;;;1.00;1.00;;;15.90;99.90;;;;;;5074522;28;20211;-63
2023/06/05 01:58:52;;;;;;;1.05;1.05;;;15.80;99.90;;;;;;5074167;28;20669;-63
2023/06/05 02:01:22;;;;;;;1.48;1.08;;;15.80;99.90;;;;;;5072470;28;20353;-61
2023/06/05 02:03:49;;;;;;;1.10;1.10;;;15.80;99.90;;;;;;5073672;28;20270;-61
2023/06/05 02:06:16;;;;;;;0.90;0.90;;;15.80;99.90;;;;;;5073841;28;20574;-61
2023/06/05 02:08:43;;;;;;;1.00;1.00;;;15.80;99.90;;;;;;5073190;28;20310;-61
2023/06/05 02:11:10;;;;;;;1.02;1.02;;;15.80;99.90;;;;;;5072123;28;20729;-62
2023/06/05 02:13:39;;;;;;;0.90;0.90;;;15.80;99.90;;;;;;5072884;28;20206;-61
2023/06/05 02:16:11;;;;;;;0.90;0.90;;;15.70;99.90;;;;;;5073270;28;20199;-61
2023/06/05 02:18:38;;;;;;;1.08;1.00;;;15.80;99.90;;;;;;5073571;28;20187;-61
2023/06/05 02:21:05;;;;;;;1.00;1.00;;;15.70;99.90;;;;;;5072756;28;20249;-62
2023/06/05 02:23:33;;;;;;;1.10;1.10;;;15.70;99.90;;;;;;5073157;28;20219;-62
2023/06/05 02:25:59;;;;;;;0.95;0.95;;;15.70;99.90;;;;;;5073063;28;20207;-61
2023/06/05 02:28:27;;;;;;;1.17;1.02;;;15.60;99.90;;;;;;5073312;28;20225;-63
2023/06/05 02:30:56;;;;;;;0.93;0.93;;;15.60;99.90;;;;;;5072315;28;20717;-62
2023/06/05 02:33:24;;;;;;;1.00;1.00;;;15.50;99.90;;;;;;5073086;28;20199;-61
2023/06/05 02:35:51;;;;;;;1.00;1.00;;;15.50;99.90;;;;;;5072701;28;20207;-61
2023/06/05 02:38:18;;;;;;;0.95;0.95;;;15.50;99.90;;;;;;5072933;28;20305;-61
2023/06/05 02:40:45;;;;;;;1.20;1.20;;;15.50;99.90;;;;;;5072075;28;20233;-62
2023/06/05 02:43:14;;;;;;;0.90;0.90;;;15.50;99.90;;;;;;5072396;28;20697;-61
2023/06/05 02:45:41;;;;;;;1.00;1.00;;;15.50;99.90;;;;;;5079455;28;20233;-62
2023/06/05 02:48:09;;;;;;;1.63;0.82;;;15.50;99.90;;;;;;5074513;28;20183;-61
2023/06/05 02:50:36;;;;;;;0.90;0.90;;;15.60;99.90;;;;;;5072080;28;20598;-62
2023/06/05 02:53:03;;;;;;;1.00;1.00;;;15.60;99.90;;;;;;5075300;28;20678;-62
2023/06/05 02:55:32;;;;;;;0.80;0.80;;;15.60;99.90;;;;;;5076304;28;20300;-62
2023/06/05 02:57:59;;;;;;;1.00;1.00;;;15.60;99.90;;;;;;5074460;28;20261;-62
2023/06/05 03:00:26;;;;;;;0.90;0.90;;;15.50;99.90;;;;;;5072921;28;20227;-62
2023/06/05 03:02:55;;;;;;;1.00;1.00;;;15.40;99.90;;;;;;5078942;28;20786;-62
2023/06/05 03:05:24;;;;;;;0.90;0.90;;;15.40;99.90;;;;;;5072489;28;20203;-61
2023/06/05 03:07:53;;;;;;;1.15;0.90;;;15.50;99.90;;;;;;5073890;28;20639;-61
2023/06/05 03:10:20;;;;;;;0.90;0.90;;;15.50;99.90;;;;;;5077319;28;20234;-62
2023/06/05 03:12:47;;;;;;;0.90;0.90;;;15.40;99.90;;;;;;5072455;28;20217;-62
2023/06/05 03:15:16;;;;;;;0.98;0.98;;;15.50;99.90;;;;;;5072141;28;20215;-66
2023/06/05 03:17:43;;;;;;;1.00;1.00;;;15.40;99.90;;;;;;5072245;28;20203;-62
2023/06/05 03:20:10;;;;;;;1.00;1.00;;;15.50;99.90;;;;;;5076820;28;20206;-61
2023/06/05 03:22:39;;;;;;;0.70;0.70;;;15.50;99.90;;;;;;5079267;28;20298;-61
2023/06/05 03:25:08;;;;;;;1.08;1.08;;;15.50;99.90;;;;;;5078848;28;20229;-62
2023/06/05 03:27:35;;;;;;;0.93;0.93;;;15.50;99.90;;;;;;5073522;28;20253;-61
2023/06/05 03:30:02;;;;;;;1.77;1.00;;;15.40;99.90;;;;;;5075423;28;20199;-61
2023/06/05 03:32:29;;;;;;;1.00;1.00;;;15.30;99.90;;;;;;5071701;28;20263;-61
2023/06/05 03:34:56;;;;;;;1.10;1.10;;;15.30;99.90;;;;;;5071829;28;20203;-61
2023/06/05 03:37:23;;;;;;;1.00;1.00;;;15.20;99.90;;;;;;5071908;28;20199;-63
2023/06/05 03:39:51;;;;;;;0.90;0.90;;;15.10;99.90;;;;;;5070778;28;20700;-62
2023/06/05 03:42:18;;;;;;;1.88;1.33;;;15.10;99.90;;;;;;5070823;28;20227;-62
2023/06/05 03:44:44;;;;;;;1.08;1.08;;;15.10;99.90;;;;;;5072061;28;20741;-61
2023/06/05 03:47:14;;;;;;;2.53;1.20;;;15.00;99.90;;;;;;5071491;28;20215;-61
2023/06/05 03:49:47;;;;;;;1.15;0.93;;;15.00;99.90;;;;;;5078588;28;20225;-62
2023/06/05 03:52:14;;;;;;;1.00;1.00;;;14.90;99.90;;;;;;5078163;28;20281;-61
2023/06/05 03:54:44;;;;;;;0.90;0.90;;;14.90;99.90;;;;;;5072702;28;20548;-61
2023/06/05 03:57:14;;;;;;;1.00;1.00;;;14.80;99.90;;;;;;5071282;28;20829;-62
2023/06/05 03:59:41;;;;;;;1.00;1.00;;;14.70;99.90;;;;;;5071359;28;20222;-63
2023/06/05 04:02:08;;;;;;;1.00;1.00;;;14.60;99.90;;;;;;5072383;28;20223;-62
2023/06/05 04:04:35;;;;;;;1.42;1.30;;;14.60;99.90;;;;;;5071707;28;20230;-61
2023/06/05 04:07:02;;;;;;;1.08;1.00;;;14.50;99.90;;;;;;5072922;28;20199;-61
2023/06/05 04:09:29;;;;;;;1.10;1.10;;;14.40;99.90;;;;;;5071610;28;20207;-62
2023/06/05 04:11:56;;;;;;;1.00;1.00;;;14.40;99.90;;;;;;5071809;28;20314;-62
2023/06/05 04:14:24;;;;;;;0.90;0.90;;;14.40;99.90;;;;;;5071372;28;20202;-61
2023/06/05 04:16:51;;;;;;;1.15;1.15;;;14.40;99.90;;;;;;5071676;28;20294;-62
2023/06/05 04:19:17;;;;;;;1.15;1.13;;;14.40;99.90;;;;;;5072863;28;20211;-62
2023/06/05 04:21:44;;;;;;;1.52;1.30;;;14.40;99.90;;;;;;5074674;28;20237;-62
2023/06/05 04:24:11;;;;;;;1.10;1.10;;;14.30;99.90;;;;;;5072189;28;20223;-63
2023/06/05 04:26:41;;;;;;;1.10;1.05;;;14.40;99.90;;;;;;5071156;28;20203;-62
2023/06/05 04:29:13;;;;;;;0.98;0.98;;;14.20;99.90;;;;;;5070502;28;20203;-64
2023/06/05 04:31:41;;;;;;;1.00;1.00;;;14.30;99.90;;;;;;5070877;28;20235;-63
2023/06/05 04:34:08;;;;;;;0.90;0.90;;;14.30;99.90;;;;;;5070720;28;20195;-62
2023/06/05 04:36:36;;;;;;;1.17;1.17;;;14.50;99.90;;;;;;5070802;28;20260;-60
2023/06/05 04:39:04;;;;;;;1.10;1.10;;;15.20;99.90;;;;;;5066068;28;20220;-61
2023/06/05 04:41:32;;;;;;;1.00;1.00;;;15.70;99.90;;;;;;5065297;28;20239;-60
2023/06/05 04:43:59;;;;;;;1.02;1.00;;;15.90;99.90;;;;;;5062812;28;20221;-61
2023/06/05 04:46:27;;;;;;;1.00;1.00;;;16.10;99.90;;;;;;5071460;28;20309;-60
2023/06/05 04:48:57;;;;;;;1.10;1.10;;;15.90;99.90;;;;;;5069216;28;20208;-61
2023/06/05 04:51:24;;;;;;;2.67;1.10;;;15.90;99.90;;;;;;5066432;28;20215;-60
2023/06/05 04:53:52;;;;;;;0.82;0.77;;;16.00;99.90;;;;;;5073495;28;20209;-61
2023/06/05 04:56:21;;;;;;;0.90;0.90;;;16.20;99.90;;;;;;5067174;28;20212;-61
2023/06/05 04:58:50;;;;;;;1.10;1.10;;;16.50;99.90;;;;;;5071431;28;20215;-64
2023/06/05 05:01:17;;;;;;;1.42;1.02;;;16.60;99.90;;;;;;5072268;28;20219;-59
2023/06/05 05:03:48;;;;;;;1.10;1.10;;;16.60;99.90;;;;;;5073983;28;20219;-60
2023/06/05 05:06:17;;;;;;;1.25;1.20;;;16.40;99.90;;;;;;5075145;28;20218;-61
2023/06/05 05:08:46;;;;;;;1.10;1.00;;;16.30;99.90;;;;;;5087533;28;20286;-62
2023/06/05 05:11:13;;;;;;;1.08;1.08;;;16.40;99.90;;;;;;5094693;28;20222;-62
2023/06/05 05:13:40;;;;;;;1.00;1.00;;;16.40;99.90;;;;;;5094645;28;20187;-59
2023/06/05 05:16:07;;;;;;;0.80;0.80;;;16.40;99.90;;;;;;5094845;28;20202;-62
2023/06/05 05:18:36;;;;;;;1.08;1.08;;;16.70;99.90;;;;;;5082913;28;20212;-62
2023/06/05 05:21:04;;;;;;;1.05;1.05;;;16.80;99.90;;;;;;5054022;28;20293;-61
2023/06/05 05:23:33;;;;;;;1.20;1.10;;;17.00;99.90;;;;;;5063285;28;20228;-62
2023/06/05 05:26:00;;;;;;;1.10;1.10;;;17.20;99.90;;;;;;5079882;28;20199;-61
2023/06/05 05:28:26;;;;;;;0.90;0.90;;;17.30;99.90;;;;;;5076083;28;20683;-61
2023/06/05 05:30:55;;;;;;;1.98;1.20;;;17.70;99.90;;;;;;5072275;28;20316;-62
2023/06/05 05:33:22;;;;;;;0.90;0.90;;;17.90;99.90;;;;;;5081609;28;20254;-59
2023/06/05 05:35:50;;;;;;;1.10;1.10;;;17.70;99.90;;;;;;5082311;28;20267;-62
2023/06/05 05:38:17;;;;;;;1.05;1.05;;;17.60;99.90;;;;;;5084529;28;20199;-61
2023/06/05 05:40:45;;;;;;;1.13;1.10;;;17.60;99.90;;;;;;5074557;28;20234;-59
2023/06/05 05:43:12;;;;;;;1.27;1.23;;;17.50;99.90;;;;;;5080170;28;20202;-59
2023/06/05 05:45:40;;;;;;;1.30;1.20;;;17.50;99.90;;;;;;5073546;28;20223;-62
2023/06/05 05:48:07;;;;;;;1.27;1.17;;;17.50;99.90;;;;;;5074014;28;20207;-61
2023/06/05 05:50:34;;;;;;;1.00;1.00;;;17.70;99.90;;;;;;5073254;28;20590;-63
2023/06/05 05:53:01;;;;;;;1.27;1.20;;;17.80;99.90;;;;;;5073398;28;20231;-61
2023/06/05 05:55:28;;;;;;;2.00;1.38;;;17.70;99.90;;;;;;5072704;28;20206;-62
2023/06/05 05:57:56;;;;;;;1.38;1.38;;;17.50;99.90;;;;;;5068567;28;20228;-59
2023/06/05 06:00:24;;;;;;;1.23;1.23;;;17.30;99.90;;;;;;5062647;28;20207;-61
2023/06/05 06:02:52;;;;;;;1.20;1.20;;;17.50;99.90;;;;;;5071761;28;20655;-60
2023/06/05 06:05:20;;;;;;;1.30;1.30;;;17.50;99.90;;;;;;5071727;28;20717;-62
2023/06/05 06:07:47;;;;;;;1.45;1.35;;;17.90;99.90;;;;;;5073814;28;20231;-59
2023/06/05 06:10:15;;;;;;;1.13;1.13;;;17.90;99.90;;;;;;5072890;28;20211;-59
2023/06/05 06:12:42;;;;;;;1.05;1.05;;;18.10;99.90;;;;;;5073320;28;20252;-60
2023/06/05 06:15:11;;;;;;;2.30;1.33;;;18.60;99.90;;;;;;5073218;28;20203;-59
2023/06/05 06:17:38;;;;;;;2.10;1.40;;;18.60;99.90;;;;;;5073426;28;20211;-59
2023/06/05 06:20:06;;;;;;;1.23;1.20;;;18.30;99.90;;;;;;5073129;28;20207;-61
2023/06/05 06:22:33;;;;;;;1.40;1.30;;;18.20;99.90;;;;;;5073382;28;20227;-59
2023/06/05 06:25:00;;;;;;;1.20;1.20;;;18.30;99.90;;;;;;5075154;28;20225;-60
2023/06/05 06:27:27;;;;;;;1.30;1.20;;;18.40;99.90;;;;;;5074760;28;20203;-59
2023/06/05 06:29:54;;;;;;;1.50;1.40;;;18.40;99.90;;;;;;5074439;28;20769;-60
2023/06/05 06:32:23;;;;;;;1.45;1.35;;;18.70;99.90;;;;;;5075751;28;20225;-60
2023/06/05 06:34:50;;;;;;;2.13;1.30;;;18.60;99.90;;;;;;5076869;28;20203;-62
2023/06/05 06:37:17;;;;;;;1.63;1.30;;;18.40;99.90;;;;;;5076231;28;20210;-60
2023/06/05 06:39:44;;;;;;;1.85;1.65;;;18.60;99.90;;;;;;5072107;28;20266;-60
2023/06/05 06:42:12;;;;;;;1.50;1.40;;;18.50;99.90;;;;;;5075335;28;20306;-59
2023/06/05 06:44:39;;;;;;;2.03;1.55;;;18.70;99.90;;;;;;5074305;28;20223;-59
2023/06/05 06:47:06;;;;;;;3.22;1.48;;;18.70;99.90;;;;;;5078205;28;20302;-61
2023/06/05 06:49:35;;;;;;;1.30;1.30;;;18.80;99.90;;;;;;5072512;28;20595;-60
2023/06/05 06:52:02;;;;;;;1.50;1.30;;;18.80;99.90;;;;;;5072823;28;20231;-64
2023/06/05 06:54:29;;;;;;;1.50;1.40;;;19.00;99.90;;;;;;5074794;28;20196;-63
2023/06/05 06:56:56;;;;;;;1.45;1.38;;;19.20;99.90;;;;;;5073413;28;20203;-64
2023/06/05 06:59:23;;;;;;;4.05;1.50;;;19.40;99.90;;;;;;5073817;28;20218;-64
2023/06/05 07:02:13;;;;;;;1.30;1.20;;;19.50;99.90;;;;;;5072033;28;20749;-64
2023/06/05 07:04:42;;;;;;;2.15;1.30;;;19.60;99.90;;;;;;5072318;28;20222;-63
2023/06/05 07:07:10;;;;;;;1.33;1.25;;;19.50;99.90;;;;;;5072253;28;20209;-63
2023/06/05 07:09:37;;;;;;;1.40;1.30;;;19.60;99.90;;;;;;5071298;28;20222;-62
2023/06/05 07:12:05;;;;;;;1.48;1.38;;;19.80;99.90;;;;;;5072878;28;20223;-65
2023/06/05 07:14:33;;;;;;;1.45;1.35;;;20.00;99.90;;;;;;5072927;28;20573;-63
2023/06/05 07:17:00;;;;;;;1.52;1.45;;;20.00;99.90;;;;;;5071990;28;20203;-64
2023/06/05 07:19:28;;;;;;;1.23;1.20;;;20.00;99.90;;;;;;5072374;28;20203;-63
2023/06/05 07:21:56;;;;;;;2.47;1.20;;;20.00;99.90;;;;;;5072340;28;20223;-65
2023/06/05 07:24:25;;;;;;;1.42;1.30;;;20.10;99.90;;;;;;5071560;28;20661;-66
2023/06/05 07:26:52;;;;;;;1.33;1.33;;;20.20;99.90;;;;;;5072354;28;20211;-64
2023/06/05 07:29:19;;;;;;;1.10;1.10;;;20.40;99.90;;;;;;5071403;28;20211;-64
2023/06/05 07:31:47;;;;;;;1.27;1.27;;;20.30;99.90;;;;;;5071643;28;20227;-63
2023/06/05 07:34:14;;;;;;;1.40;1.30;;;20.30;99.90;;;;;;5071274;28;20690;-63
2023/06/05 07:36:41;;;;;;;1.20;1.10;;;20.50;99.90;;;;;;5071963;28;20248;-62
2023/06/05 07:39:11;;;;;;;1.38;1.27;;;20.60;99.90;;;;;;5079995;28;20204;-64
2023/06/05 07:41:39;;;;;;;2.10;1.40;;;20.80;99.90;;;;;;5071648;28;20585;-64
2023/06/05 07:44:07;;;;;;;1.30;1.20;;;20.80;99.90;;;;;;5071605;28;20740;-62
2023/06/05 07:46:33;;;;;;;1.20;1.20;;;20.80;99.90;;;;;;5073119;28;20215;-63
2023/06/05 07:49:00;;;;;;;1.17;1.17;;;20.70;99.90;;;;;;5077039;28;20207;-63
2023/06/05 07:51:27;;;;;;;1.40;1.30;;;20.80;99.90;;;;;;5071405;28;20748;-63
2023/06/05 07:53:54;;;;;;;1.67;1.35;;;20.90;99.90;;;;;;5072044;28;20229;-63
2023/06/05 07:56:25;;;;;;;1.55;1.45;;;21.00;99.90;;;;;;5079021;28;20204;-65
2023/06/05 07:58:52;;;;;;;1.30;1.30;;;20.90;99.90;;;;;;5072164;28;20700;-62
2023/06/05 08:01:20;;;;;;;2.65;1.40;;;21.00;99.90;;;;;;5071115;28;20231;-63
2023/06/05 08:03:47;;;;;;;1.30;1.30;;;21.20;99.90;;;;;;5071419;28;20314;-62
2023/06/05 08:06:15;;;;;;;2.58;1.30;;;21.30;99.90;;;;;;5071806;28;20226;-62
2023/06/05 08:08:43;;;;;;;1.20;1.10;;;21.40;99.90;;;;;;5071034;28;20207;-61
2023/06/05 08:11:10;;;;;;;1.42;1.27;;;21.50;99.90;;;;;;5070785;28;20734;-64
2023/06/05 08:13:39;;;;;;;1.40;1.30;;;21.50;99.90;;;;;;5071765;28;20684;-64
2023/06/05 08:16:06;;;;;;;1.20;1.20;;;21.60;99.90;;;;;;5073474;28;20199;-63
2023/06/05 08:18:34;;;;;;;1.50;1.15;;;21.60;99.90;;;;;;5079696;28;20210;-64
2023/06/05 08:21:00;;;;;;;1.33;1.33;;;21.60;99.90;;;;;;5076403;28;20231;-63
2023/06/05 08:23:27;;;;;;;1.20;1.20;;;21.70;99.90;;;;;;5071750;28;20298;-64
2023/06/05 08:25:55;;;;;;;1.48;1.20;;;21.70;99.90;;;;;;5071198;28;20227;-65
2023/06/05 08:28:21;;;;;;;1.17;1.10;;;21.90;99.90;;;;;;5073499;28;20206;-63
2023/06/05 08:30:51;;;;;;;1.30;1.20;;;22.10;99.90;;;;;;5074927;28;20265;-64
2023/06/05 08:33:18;;;;;;;1.10;1.10;;;22.30;99.90;;;;;;5075521;28;20229;-62
2023/06/05 08:35:45;;;;;;;1.40;1.30;;;22.40;99.90;;;;;;5075506;28;20744;-63
2023/06/05 08:38:12;;;;;;;1.20;1.10;;;22.20;99.90;;;;;;5075965;28;20199;-64
2023/06/05 08:40:40;;;;;;;1.05;1.05;;;22.10;99.90;;;;;;5075014;28;20222;-64
2023/06/05 08:43:07;;;;;;;1.35;1.23;;;22.30;99.90;;;;;;5075631;28;20199;-64
2023/06/05 08:45:34;;;;;;;1.75;1.27;;;22.40;99.90;;;;;;5076310;28;20233;-65
2023/06/05 08:48:03;;;;;;;2.25;1.20;;;22.40;99.90;;;;;;5075047;28;20259;-63
2023/06/05 08:50:30;;;;;;;1.10;1.10;;;22.60;99.90;;;;;;5074012;28;20653;-64
2023/06/05 08:53:00;;;;;;;1.67;1.58;;;22.70;99.90;;;;;;5075790;28;20254;-65
2023/06/05 08:55:28;;;;;;;1.25;1.15;;;22.80;99.90;;;;;;5075032;28;20214;-64
2023/06/05 08:57:55;;;;;;;1.23;1.13;;;22.80;99.90;;;;;;5074604;28;20302;-66
2023/06/05 09:00:23;;;;;;;1.30;1.30;;;22.90;99.90;;;;;;5074209;28;20229;-65
2023/06/05 09:02:50;;;;;;;1.70;1.20;;;23.00;99.90;;;;;;5074285;28;20740;-63
2023/06/05 09:05:18;;;;;;;1.65;1.55;;;23.10;99.90;;;;;;5074626;28;20219;-63
2023/06/05 09:07:46;;;;;;;1.20;1.10;;;23.20;99.90;;;;;;5074817;28;20214;-64
2023/06/05 09:10:26;;;;;;;1.10;1.10;;;23.10;99.90;;;;;;5073710;28;20233;-63
2023/06/05 09:12:54;;;;;;;1.48;1.38;;;23.20;99.90;;;;;;5074607;28;20537;-64
2023/06/05 09:15:26;;;;;;;1.30;1.10;;;23.30;99.90;;;;;;5074469;28;20210;-63
2023/06/05 09:18:08;;;;;;;1.00;1.00;;;23.50;99.90;;;;;;5073657;28;20294;-64
2023/06/05 09:20:37;;;;;;;1.10;1.10;;;23.60;99.90;;;;;;5073090;28;20276;-65
2023/06/05 09:23:06;;;;;;;1.30;1.20;;;23.70;99.90;;;;;;5074047;28;20206;-63
2023/06/05 09:25:47;;;;;;;2.03;1.20;;;23.70;99.90;;;;;;5073604;28;20295;-64
2023/06/05 09:28:15;;;;;;;1.95;1.10;;;23.90;99.90;;;;;;5073534;28;20629;-63
2023/06/05 09:30:55;;;;;;;1.40;1.25;;;23.90;99.90;;;;;;5072574;28;20223;-65
2023/06/05 09:33:23;;;;;;;1.10;1.10;;;24.00;99.90;;;;;;5073630;28;20576;-64
2023/06/05 09:36:03;;;;;;;1.17;1.10;;;24.00;99.90;;;;;;5073600;28;20206;-65
2023/06/05 09:38:30;;;;;;;1.33;1.23;;;24.00;99.90;;;;;;5073789;28;20195;-63
2023/06/05 09:41:03;;;;;;;1.30;1.20;;;24.20;99.90;;;;;;5055071;28;20248;-63
2023/06/05 09:43:30;;;;;;;1.27;1.17;;;24.30;99.90;;;;;;5074024;28;20214;-65
2023/06/05 09:45:57;;;;;;;1.15;1.05;;;24.20;99.90;;;;;;5074086;28;20720;-64
2023/06/05 09:48:25;;;;;;;1.00;1.00;;;24.00;99.90;;;;;;5074550;28;20207;-64
2023/06/05 09:50:53;;;;;;;1.15;1.13;;;24.20;99.90;;;;;;5072554;28;20227;-64
2023/06/05 09:53:21;;;;;;;1.00;1.00;;;24.30;99.90;;;;;;5073494;28;20229;-64
2023/06/05 09:55:49;;;;;;;1.20;1.20;;;24.30;99.90;;;;;;5073878;28;20226;-63
2023/06/05 09:58:18;;;;;;;1.10;1.10;;;24.50;99.90;;;;;;5073971;28;20605;-62
2023/06/05 10:00:46;;;;;;;1.42;1.35;;;24.60;99.90;;;;;;5072630;28;20783;-65
2023/06/05 10:03:18;;;;;;;1.30;1.20;;;24.50;99.90;;;;;;5073136;28;20700;-64
2023/06/05 10:05:45;;;;;;;1.40;1.30;;;24.60;99.90;;;;;;5073447;28;20208;-64
2023/06/05 10:08:14;;;;;;;1.70;1.20;;;24.80;99.90;;;;;;5074238;28;20276;-64
2023/06/05 10:10:42;;;;;;;1.13;1.13;;;25.00;99.90;;;;;;5073663;28;20219;-64
2023/06/05 10:13:11;;;;;;;1.15;1.10;;;25.20;99.90;;;;;;5075984;28;20356;-65
2023/06/05 10:15:39;;;;;;;1.20;1.10;;;25.40;99.90;;;;;;5076303;28;20203;-65
2023/06/05 10:18:06;;;;;;;1.35;1.25;;;25.50;99.90;;;;;;5076160;28;20208;-64
2023/06/05 10:20:37;;;;;;;1.90;1.13;;;25.50;99.90;;;;;;5073024;28;20742;-65
2023/06/05 10:23:05;;;;;;;2.13;1.50;;;25.50;99.90;;;;;;5073768;28;20214;-64
2023/06/05 10:25:34;;;;;;;1.15;1.10;;;25.70;99.90;;;;;;5074157;28;20330;-64
2023/06/05 10:28:14;;;;;;;1.00;1.00;;;25.50;99.90;;;;;;5073610;28;20214;-63
2023/06/05 10:31:15;;;;;;;1.00;1.00;;;25.60;99.90;;;;;;5072963;28;20295;-65
2023/06/05 10:33:55;;;;;;;1.08;1.02;;;25.90;99.90;;;;;;5073302;28;20556;-65
2023/06/05 10:36:40;;;;;;;1.05;1.05;;;25.90;99.90;;;;;;5073536;28;20225;-63
2023/06/05 10:39:08;;;;;;;1.13;1.13;;;26.00;99.90;;;;;;5072740;28;20207;-63
2023/06/05 10:41:36;;;;;;;1.10;1.10;;;25.90;99.90;;;;;;5073173;28;20229;-64
2023/06/05 10:44:03;;;;;;;1.25;1.15;;;26.10;99.90;;;;;;5073541;28;20210;-63
2023/06/05 10:46:32;;;;;;;1.23;1.15;;;26.00;99.90;;;;;;5073507;28;20288;-63
2023/06/05 10:49:11;;;;;;;1.30;1.13;;;26.20;99.90;;;;;;5072142;28;20214;-63
2023/06/05 10:51:40;;;;;;;1.00;1.00;;;26.50;99.90;;;;;;5073944;28;20223;-64
2023/06/05 10:54:08;;;;;;;1.10;1.10;;;26.60;99.90;;;;;;5074549;28;20203;-65
2023/06/05 10:57:01;;;;;;;1.00;1.00;;;26.70;99.90;;;;;;5072203;28;20219;-64
2023/06/05 10:59:30;;;;;;;2.90;1.30;;;26.60;99.90;;;;;;5071058;28;20678;-64
2023/06/05 11:02:27;;;;;;;1.10;1.10;;;26.70;99.90;;;;;;5071838;28;20226;-63
2023/06/05 11:05:21;;;;;;;1.38;1.27;;;26.90;99.90;;;;;;5071704;28;20211;-64
2023/06/05 11:07:48;;;;;;;1.33;1.20;;;26.70;99.90;;;;;;5072405;28;20307;-64
2023/06/05 11:10:20;;;;;;;1.20;1.20;;;26.70;99.90;;;;;;5071915;28;20205;-65
2023/06/05 11:12:59;;;;;;;1.48;1.38;;;26.80;99.90;;;;;;5073103;28;20187;-63
2023/06/05 11:15:41;;;;;;;1.90;1.25;;;26.80;99.90;;;;;;5072514;28;20195;-65
2023/06/05 11:18:33;;;;;;;1.40;1.30;;;26.90;99.90;;;;;;5072188;28;20183;-63
2023/06/05 11:21:02;;;;;;;1.13;1.13;;;27.00;99.90;;;;;;5071611;28;20223;-63
2023/06/05 11:23:29;;;;;;;1.42;1.33;;;27.00;99.90;;;;;;5071821;28;20203;-65
2023/06/05 11:26:32;;;;;;;1.45;1.35;;;27.00;99.90;;;;;;5071908;28;20233;-63
2023/06/05 11:29:00;;;;;;;1.10;1.10;;;26.80;99.90;;;;;;5070884;28;20213;-64
2023/06/05 11:31:32;;;;;;;1.60;1.50;;;26.90;99.90;;;;;;5070492;28;20314;-64
2023/06/05 11:33:59;;;;;;;1.27;1.17;;;27.00;99.90;;;;;;5071069;28;20215;-64
2023/06/05 11:36:26;;;;;;;1.42;1.33;;;26.90;99.90;;;;;;5067460;28;20209;-65
2023/06/05 11:38:54;;;;;;;1.52;1.42;;;27.10;99.90;;;;;;5060673;28;20734;-64
2023/06/05 11:41:21;;;;;;;1.10;1.10;;;27.10;99.90;;;;;;5069026;28;20260;-65
2023/06/05 11:43:48;;;;;;;1.40;1.30;;;27.40;99.90;;;;;;5053239;28;20210;-64
2023/06/05 11:46:16;;;;;;;1.55;1.38;;;27.40;99.90;;;;;;5049167;28;20269;-64
2023/06/05 11:48:47;;;;;;;3.72;3.42;;;27.40;99.90;;;;;;5048548;28;20204;-63
2023/06/05 11:51:13;;;;;;;1.77;1.17;;;27.30;99.90;;;;;;5048243;28;20228;-65
2023/06/05 11:53:49;;;;;;;1.40;1.30;;;27.20;99.90;;;;;;5049746;28;20279;-65
2023/06/05 11:56:17;;;;;;;1.48;1.25;;;27.40;99.90;;;;;;5049151;28;20260;-64
2023/06/05 11:58:45;;;;;;;1.17;1.17;;;27.40;99.90;;;;;;5048907;28;20287;-65
2023/06/05 12:01:21;;;;;;;1.65;1.65;;;27.50;99.90;;;;;;5047716;28;20228;-65
2023/06/05 12:03:49;;;;;;;2.67;1.23;;;27.60;99.90;;;;;;5048491;28;20207;-64
2023/06/05 12:06:17;;;;;;;1.27;1.20;;;27.40;99.90;;;;;;5049029;28;20737;-64
2023/06/05 12:08:45;;;;;;;1.23;1.13;;;27.60;99.90;;;;;;5049711;28;20618;-65
2023/06/05 12:11:23;;;;;;;1.70;1.60;;;27.60;99.90;;;;;;5048672;28;20263;-63
2023/06/05 12:13:51;;;;;;;1.83;1.33;;;27.60;99.90;;;;;;5048865;28;20214;-65
2023/06/05 12:16:20;;;;;;;1.38;1.30;;;27.40;99.90;;;;;;5049043;28;20294;-64
2023/06/05 12:18:49;;;;;;;1.30;1.30;;;27.10;99.90;;;;;;5048799;28;20299;-65
2023/06/05 12:21:24;;;;;;;1.40;1.27;;;27.20;99.90;;;;;;5047935;28;20281;-63
2023/06/05 12:23:51;;;;;;;1.58;1.48;;;27.50;99.90;;;;;;5049670;28;20504;-64
2023/06/05 12:26:18;;;;;;;1.50;1.40;;;27.40;99.90;;;;;;5052974;28;20230;-64
2023/06/05 12:28:46;;;;;;;1.50;1.40;;;27.00;99.90;;;;;;5054054;28;20210;-63
2023/06/05 12:31:35;;;;;;;1.90;1.55;;;27.10;99.90;;;;;;5058286;28;20283;-64
2023/06/05 12:34:03;;;;;;;4.95;4.53;;;27.20;99.90;;;;;;5071258;28;20274;-64
2023/06/05 12:36:31;;;;;;;1.10;1.10;;;27.20;99.90;;;;;;5071146;28;20199;-63
2023/06/05 12:39:05;;;;;;;1.50;1.50;;;27.40;99.90;;;;;;5069042;28;20214;-65
2023/06/05 12:41:32;;;;;;;1.33;1.25;;;27.60;99.90;;;;;;5068912;28;20581;-64
2023/06/05 12:44:04;;;;;;;4.25;4.05;;;27.60;99.90;;;;;;5068933;28;20684;-64
2023/06/05 12:46:31;;;;;;;1.98;1.88;;;27.10;99.90;;;;;;5069013;28;20689;-64
2023/06/05 12:48:59;;;;;;;1.10;1.10;;;27.20;99.90;;;;;;5068351;28;20268;-65
2023/06/05 12:51:26;;;;;;;3.63;3.42;;;27.40;99.90;;;;;;5068616;28;20227;-64
2023/06/05 12:53:54;;;;;;;1.10;1.10;;;27.30;99.90;;;;;;5064121;28;20269;-64
2023/06/05 12:56:24;;;;;;;1.30;1.30;;;27.40;99.90;;;;;;5060836;28;20198;-65
2023/06/05 12:58:52;;;;;;;1.70;1.60;;;27.60;99.90;;;;;;5069258;28;20210;-63